Terminal Aerodrome Forecast
Issued by NWS

Home | Current Version | Previous Version | Text Only | Print | Product List | Glossary On
Versions: 1 2 3 4 5 6 7 8 9 10 11 12 13 14 15 16 17 18 19 20 21 22 23 24 25 26 27 28 29 30
000
FTUS45 KGJT 031726
TAFEGE
TAF
KEGE 031726Z 0318/0418 00000KT P6SM SCT120 SCT200
     FM031900 25006KT P6SM SCT100 BKN150
     FM032100 23010KT P6SM VCTS SCT100CB BKN150
      TEMPO 0322/0402 VRB15G25KT -TSRA BKN080CB
     FM040300 08005KT P6SM SCT100 BKN200
     FM041200 VRB03KT P6SM SCT100 BKN200=

USA.gov is the U.S. government's official web portal to all federal, state and local government web resources and services.